Lana — WDB2809 — position and weather

sailwx.info

Track history (hours):
 
Tides and Currents Weather Stations Pressure Air Temp Water Temp Dewpoint Dewpoint Depression Visibility Wind Speed Wind Dir Waves Ship Positions

Lana

Owner: MARINE EXPRESS INCORPORATION, ALAMEDA, CA. More information available from US FCC via Universal Licensing System.

Last reported at 2017-Oct-17 21:48 UTC. Time now 2017-Oct-18 11:22 UTC.
Position N 37°47' W 122°17'.

Length 19 m.

Type: Passenger vessel. MMSI: 338108125.

Date/timePositionNaut miles runAvg speedWind from/ knotsBaromVisibWave heightAir tempDewpointWater temp
2017-Oct-17 21:48N 37°47' W 122°17'2 7.0
2017-Oct-17 21:30N 37°48' W 122°20'4 7.7
2017-Oct-17 21:00N 37°44' W 122°21'4 8.4
2017-Oct-17 20:30N 37°48' W 122°18'0 0.3
2017-Oct-17 18:57N 37°47' W 122°17'3 6.9
2017-Oct-17 18:30N 37°47' W 122°21'1 2.6
2017-Oct-17 18:00N 37°45' W 122°20'3 6.5
2017-Oct-17 17:30N 37°47' W 122°17'0 0.0
2017-Oct-17 00:27N 37°47' W 122°17'3 6.5
2017-Oct-17 00:00N 37°46' W 122°21'3 5.6
2017-Oct-16 23:31N 37°48' W 122°18'0 0.1
2017-Oct-16 18:44N 37°47' W 122°17'0 0.0
2017-Oct-16 18:30N 37°47' W 122°17'0 0.0
2017-Oct-16 16:27N 37°47' W 122°17'3 6.2
2017-Oct-16 16:00N 37°46' W 122°20'0 0.1
2017-Oct-16 15:30N 37°46' W 122°20'2 4.5
2017-Oct-16 15:00N 37°48' W 122°18'1 0.0
2017-Oct-15 23:18N 37°47' W 122°17'2 7.2
2017-Oct-15 23:00N 37°48' W 122°20'2 4.7
2017-Oct-15 22:30N 37°46' W 122°20'0 0.1
2017-Oct-15 22:00N 37°46' W 122°20'0 0.0
2017-Oct-15 21:30N 37°46' W 122°20'3 5.1
2017-Oct-15 21:01N 37°48' W 122°18'1 0.1
2017-Oct-15 15:17N 37°47' W 122°17'2 9.1
2017-Oct-15 15:01N 37°48' W 122°20'7 6.8
2017-Oct-15 14:00N 37°55' W 122°22'1 1.4
2017-Oct-15 13:30N 37°54' W 122°22'4 8.6
2017-Oct-15 13:00N 37°50' W 122°22'4 8.7
2017-Oct-15 12:30N 37°47' W 122°17'0 0.0
2017-Oct-14 23:38N 37°47' W 122°17'0 2.5
2017-Oct-14 23:30N 37°48' W 122°18'3 6.3
2017-Oct-14 23:00N 37°45' W 122°21'0 0.4
2017-Oct-14 22:30N 37°46' W 122°21'0 0.1
2017-Oct-14 22:00N 37°46' W 122°21'0 0.0
2017-Oct-14 21:30N 37°46' W 122°21'0 0.3
2017-Oct-14 21:00N 37°46' W 122°21'3 6.4
2017-Oct-14 20:30N 37°47' W 122°17'0 0.0
2017-Oct-14 20:00N 37°47' W 122°17'0 0.0
2017-Oct-14 19:30N 37°47' W 122°17'0 0.0
2017-Oct-14 19:00N 37°47' W 122°17'0 0.0
2017-Oct-14 18:30N 37°47' W 122°17'0 0.0
2017-Oct-14 18:00N 37°47' W 122°17'0 0.0
2017-Oct-14 17:30N 37°47' W 122°17'0 0.0
2017-Oct-14 00:24N 37°47' W 122°17'3 6.4
2017-Oct-14 00:00N 37°47' W 122°20'1 1.5
2017-Oct-13 23:30N 37°47' W 122°20'1 1.5
2017-Oct-13 23:00N 37°48' W 122°20'5 9.3
2017-Oct-13 22:30N 37°43' W 122°21'1 1.8
2017-Oct-13 22:00N 37°44' W 122°20'0 0.9
2017-Oct-13 21:31N 37°44' W 122°20'1 1.9
2017-Oct-13 21:01N 37°45' W 122°21'1 1.6
2017-Oct-13 20:30N 37°46' W 122°21'3 6.2
2017-Oct-13 20:00N 37°47' W 122°17'0 0.0
2017-Oct-13 19:11N 37°47' W 122°17'1 3.1
2017-Oct-13 19:00N 37°47' W 122°18'3 6.4
2017-Oct-13 18:30N 37°45' W 122°21'0 0.1
2017-Oct-13 18:00N 37°45' W 122°21'0 0.0
2017-Oct-13 17:30N 37°45' W 122°21'1 1.7
2017-Oct-13 17:00N 37°44' W 122°21'2 4.1
2017-Oct-13 16:30N 37°46' W 122°21'3 5.8
2017-Oct-13 16:01N 37°47' W 122°17'0 0.0
2017-Oct-13 15:30N 37°47' W 122°17'0 0.0
2017-Oct-13 15:00N 37°47' W 122°17'0 0.0
2017-Oct-13 14:30N 37°47' W 122°17'3 5.2
2017-Oct-13 14:01N 37°47' W 122°20'2 3.9
2017-Oct-13 13:30N 37°45' W 122°21'0 0.1
2017-Oct-13 13:00N 37°45' W 122°21'4 7.7
2017-Oct-13 12:30N 37°48' W 122°17'0 0.0
2017-Oct-12 21:40N 37°47' W 122°17'0 0.4
2017-Oct-12 21:30N 37°47' W 122°17'0 0.1
2017-Oct-12 21:00N 37°47' W 122°17'0 0.0
2017-Oct-12 16:45N 37°47' W 122°17'2 9.5
2017-Oct-12 16:30N 37°48' W 122°20'3 6.8
2017-Oct-12 16:00N 37°44' W 122°20'4 7.2
2017-Oct-12 15:30N 37°48' W 122°19'0 0.2
2017-Oct-12 15:01N 37°48' W 122°19'2 4.5
2017-Oct-12 14:30N 37°46' W 122°20'3 5.7
2017-Oct-12 14:00N 37°47' W 122°17'0 0.0
2017-Oct-12 09:11N 37°48' W 122°17'210.8
2017-Oct-12 09:01N 37°48' W 122°20'3 6.4
2017-Oct-12 08:31N 37°45' W 122°21'0 0.0
2017-Oct-12 08:00N 37°45' W 122°21'0 0.5
2017-Oct-12 07:30N 37°45' W 122°21'3 6.0
2017-Oct-12 07:00N 37°48' W 122°20'2 0.4
2017-Oct-12 01:28N 37°47' W 122°17'3 5.7
2017-Oct-12 01:00N 37°46' W 122°20'3 5.7
2017-Oct-12 00:30N 37°43' W 122°20'3 5.7
2017-Oct-12 00:01N 37°45' W 122°23'1 2.6
2017-Oct-11 23:30N 37°45' W 122°21'1 1.6
2017-Oct-11 23:00N 37°46' W 122°20'1 2.4
2017-Oct-11 22:30N 37°45' W 122°20'3 6.1
2017-Oct-11 22:00N 37°48' W 122°19'1 0.4
2017-Oct-11 18:38N 37°47' W 122°17'0 2.4
2017-Oct-11 18:30N 37°48' W 122°18'3 6.5
2017-Oct-11 18:00N 37°45' W 122°20'3 6.0
2017-Oct-11 17:30N 37°48' W 122°19'1 1.8
2017-Oct-11 17:00N 37°48' W 122°20'2 0.1
2017-Oct-10 20:21N 37°47' W 122°17'0 0.1
2017-Oct-10 20:00N 37°47' W 122°17'510.9
2017-Oct-10 19:30N 37°48' W 122°24'0 0.8
2017-Oct-10 19:00N 37°48' W 122°24'0 0.0
2017-Oct-10 18:30N 37°48' W 122°24'0 0.0
2017-Oct-10 17:59N 37°48' W 122°24'0 0.0
2017-Oct-10 17:30N 37°48' W 122°24'0 0.1
2017-Oct-10 17:01N 37°48' W 122°24'0 0.1
2017-Oct-10 16:31N 37°48' W 122°24'1 1.8
2017-Oct-10 16:00N 37°47' W 122°23'1 1.7
2017-Oct-10 15:30N 37°48' W 122°22'4 7.6
2017-Oct-10 15:00N 37°47' W 122°17'0 0.0
2017-Oct-10 01:22N 37°47' W 122°17'1 3.2
2017-Oct-10 01:00N 37°48' W 122°19'5 9.1
2017-Oct-10 00:30N 37°43' W 122°20'1 2.6
2017-Oct-10 00:01N 37°44' W 122°20'1 2.5
2017-Oct-09 23:30N 37°46' W 122°20'3 5.8
2017-Oct-09 23:00N 37°47' W 122°17'0 0.0
2017-Oct-09 22:30N 37°47' W 122°17'0 0.0
2017-Oct-09 22:00N 37°47' W 122°17'3 6.0
2017-Oct-09 21:30N 37°46' W 122°21'2 3.4
2017-Oct-09 21:00N 37°44' W 122°20'0 0.9
2017-Oct-09 20:30N 37°45' W 122°20'4 7.3
2017-Oct-09 20:00N 37°47' W 122°17'0 0.0
2017-Oct-09 16:56N 37°47' W 122°17'3 7.8
2017-Oct-09 16:30N 37°48' W 122°21'0 0.1
2017-Oct-09 16:01N 37°48' W 122°22'2 3.4
2017-Oct-09 15:30N 37°48' W 122°19'2 3.5
2017-Oct-09 15:00N 37°47' W 122°17'3 6.1
2017-Oct-09 14:30N 37°46' W 122°20'2 5.0
2017-Oct-09 14:00N 37°48' W 122°18'1 0.1
2017-Oct-09 01:04N 37°47' W 122°17'0 0.5
2017-Oct-09 01:01N 37°47' W 122°17'0 0.0
2017-Oct-09 00:34N 37°47' W 122°17'359.4
2017-Oct-09 00:30N 37°45' W 122°20'32912.2
2017-Oct-09 00:30N 37°48' W 122°18'0 0.9
2017-Oct-09 00:01N 37°48' W 122°18'31682.7
2017-Oct-09 00:00N 37°48' W 122°21'2 3.6
2017-Oct-08 23:30N 37°48' W 122°24'0 0.9
2017-Oct-08 23:00N 37°48' W 122°24'4 7.3
2017-Oct-08 22:30N 37°48' W 122°19'114.4
2017-Oct-08 22:24N 37°47' W 122°17'3 6.8
2017-Oct-08 22:01N 37°47' W 122°21'31384.0
2017-Oct-08 22:00N 37°47' W 122°17'4 7.7
2017-Oct-08 21:30N 37°44' W 122°20'4 7.1
2017-Oct-08 21:00N 37°48' W 122°20'1 0.1
2017-Oct-08 07:28N 37°48' W 122°18'3 6.6
2017-Oct-08 07:00N 37°45' W 122°21'4 7.0
2017-Oct-08 06:30N 37°47' W 122°17'3 5.8
2017-Oct-08 06:00N 37°48' W 122°21'3 5.6
2017-Oct-08 05:30N 37°45' W 122°21'3 5.1
2017-Oct-08 05:01N 37°47' W 122°23'0 0.3
2017-Oct-08 04:31N 37°47' W 122°23'3 5.7
2017-Oct-08 04:00N 37°48' W 122°20'2 4.1
2017-Oct-08 03:30N 37°47' W 122°17'0 0.0
2017-Oct-08 03:01N 37°47' W 122°17'  
Track history (hours):
 
Tides and Currents Weather Stations Pressure Air Temp Water Temp Dewpoint Dewpoint Depression Visibility Wind Speed Wind Dir Waves Ship Positions

Lana

Owner: MARINE EXPRESS INCORPORATION, ALAMEDA, CA. More information available from US FCC via Universal Licensing System.

Last reported at 2017-Oct-17 21:48 UTC. Time now 2017-Oct-18 11:22 UTC.
Position N 37°47' W 122°17'.

Length 19 m.

Type: Passenger vessel. MMSI: 338108125.

Date/timePositionNaut miles runAvg speedWind from/ knotsBaromVisibWave heightAir tempDewpointWater temp
2017-Oct-17 21:48N 37°47' W 122°17'2 7.0
2017-Oct-17 21:30N 37°48' W 122°20'4 7.7
2017-Oct-17 21:00N 37°44' W 122°21'4 8.4
2017-Oct-17 20:30N 37°48' W 122°18'0 0.3
2017-Oct-17 18:57N 37°47' W 122°17'3 6.9
2017-Oct-17 18:30N 37°47' W 122°21'1 2.6
2017-Oct-17 18:00N 37°45' W 122°20'3 6.5
2017-Oct-17 17:30N 37°47' W 122°17'0 0.0
2017-Oct-17 00:27N 37°47' W 122°17'3 6.5
2017-Oct-17 00:00N 37°46' W 122°21'3 5.6
2017-Oct-16 23:31N 37°48' W 122°18'0 0.1
2017-Oct-16 18:44N 37°47' W 122°17'0 0.0
2017-Oct-16 18:30N 37°47' W 122°17'0 0.0
2017-Oct-16 16:27N 37°47' W 122°17'3 6.2
2017-Oct-16 16:00N 37°46' W 122°20'0 0.1
2017-Oct-16 15:30N 37°46' W 122°20'2 4.5
2017-Oct-16 15:00N 37°48' W 122°18'1 0.0
2017-Oct-15 23:18N 37°47' W 122°17'2 7.2
2017-Oct-15 23:00N 37°48' W 122°20'2 4.7
2017-Oct-15 22:30N 37°46' W 122°20'0 0.1
2017-Oct-15 22:00N 37°46' W 122°20'0 0.0
2017-Oct-15 21:30N 37°46' W 122°20'3 5.1
2017-Oct-15 21:01N 37°48' W 122°18'1 0.1
2017-Oct-15 15:17N 37°47' W 122°17'2 9.1
2017-Oct-15 15:01N 37°48' W 122°20'7 6.8
2017-Oct-15 14:00N 37°55' W 122°22'1 1.4
2017-Oct-15 13:30N 37°54' W 122°22'4 8.6
2017-Oct-15 13:00N 37°50' W 122°22'4 8.7
2017-Oct-15 12:30N 37°47' W 122°17'0 0.0
2017-Oct-14 23:38N 37°47' W 122°17'0 2.5
2017-Oct-14 23:30N 37°48' W 122°18'3 6.3
2017-Oct-14 23:00N 37°45' W 122°21'0 0.4
2017-Oct-14 22:30N 37°46' W 122°21'0 0.1
2017-Oct-14 22:00N 37°46' W 122°21'0 0.0
2017-Oct-14 21:30N 37°46' W 122°21'0 0.3
2017-Oct-14 21:00N 37°46' W 122°21'3 6.4
2017-Oct-14 20:30N 37°47' W 122°17'0 0.0
2017-Oct-14 20:00N 37°47' W 122°17'0 0.0
2017-Oct-14 19:30N 37°47' W 122°17'0 0.0
2017-Oct-14 19:00N 37°47' W 122°17'0 0.0
2017-Oct-14 18:30N 37°47' W 122°17'0 0.0
2017-Oct-14 18:00N 37°47' W 122°17'0 0.0
2017-Oct-14 17:30N 37°47' W 122°17'0 0.0
2017-Oct-14 00:24N 37°47' W 122°17'3 6.4
2017-Oct-14 00:00N 37°47' W 122°20'1 1.5
2017-Oct-13 23:30N 37°47' W 122°20'1 1.5
2017-Oct-13 23:00N 37°48' W 122°20'5 9.3
2017-Oct-13 22:30N 37°43' W 122°21'1 1.8
2017-Oct-13 22:00N 37°44' W 122°20'0 0.9
2017-Oct-13 21:31N 37°44' W 122°20'1 1.9
2017-Oct-13 21:01N 37°45' W 122°21'1 1.6
2017-Oct-13 20:30N 37°46' W 122°21'3 6.2
2017-Oct-13 20:00N 37°47' W 122°17'0 0.0
2017-Oct-13 19:11N 37°47' W 122°17'1 3.1
2017-Oct-13 19:00N 37°47' W 122°18'3 6.4
2017-Oct-13 18:30N 37°45' W 122°21'0 0.1
2017-Oct-13 18:00N 37°45' W 122°21'0 0.0
2017-Oct-13 17:30N 37°45' W 122°21'1 1.7
2017-Oct-13 17:00N 37°44' W 122°21'2 4.1
2017-Oct-13 16:30N 37°46' W 122°21'3 5.8
2017-Oct-13 16:01N 37°47' W 122°17'0 0.0
2017-Oct-13 15:30N 37°47' W 122°17'0 0.0
2017-Oct-13 15:00N 37°47' W 122°17'0 0.0
2017-Oct-13 14:30N 37°47' W 122°17'3 5.2
2017-Oct-13 14:01N 37°47' W 122°20'2 3.9
2017-Oct-13 13:30N 37°45' W 122°21'0 0.1
2017-Oct-13 13:00N 37°45' W 122°21'4 7.7
2017-Oct-13 12:30N 37°48' W 122°17'0 0.0
2017-Oct-12 21:40N 37°47' W 122°17'0 0.4
2017-Oct-12 21:30N 37°47' W 122°17'0 0.1
2017-Oct-12 21:00N 37°47' W 122°17'0 0.0
2017-Oct-12 16:45N 37°47' W 122°17'2 9.5
2017-Oct-12 16:30N 37°48' W 122°20'3 6.8
2017-Oct-12 16:00N 37°44' W 122°20'4 7.2
2017-Oct-12 15:30N 37°48' W 122°19'0 0.2
2017-Oct-12 15:01N 37°48' W 122°19'2 4.5
2017-Oct-12 14:30N 37°46' W 122°20'3 5.7
2017-Oct-12 14:00N 37°47' W 122°17'0 0.0
2017-Oct-12 09:11N 37°48' W 122°17'210.8
2017-Oct-12 09:01N 37°48' W 122°20'3 6.4
2017-Oct-12 08:31N 37°45' W 122°21'0 0.0
2017-Oct-12 08:00N 37°45' W 122°21'0 0.5
2017-Oct-12 07:30N 37°45' W 122°21'3 6.0
2017-Oct-12 07:00N 37°48' W 122°20'2 0.4
2017-Oct-12 01:28N 37°47' W 122°17'3 5.7
2017-Oct-12 01:00N 37°46' W 122°20'3 5.7
2017-Oct-12 00:30N 37°43' W 122°20'3 5.7
2017-Oct-12 00:01N 37°45' W 122°23'1 2.6
2017-Oct-11 23:30N 37°45' W 122°21'1 1.6
2017-Oct-11 23:00N 37°46' W 122°20'1 2.4
2017-Oct-11 22:30N 37°45' W 122°20'3 6.1
2017-Oct-11 22:00N 37°48' W 122°19'1 0.4
2017-Oct-11 18:38N 37°47' W 122°17'0 2.4
2017-Oct-11 18:30N 37°48' W 122°18'3 6.5
2017-Oct-11 18:00N 37°45' W 122°20'3 6.0
2017-Oct-11 17:30N 37°48' W 122°19'1 1.8
2017-Oct-11 17:00N 37°48' W 122°20'2 0.1
2017-Oct-10 20:21N 37°47' W 122°17'0 0.1
2017-Oct-10 20:00N 37°47' W 122°17'510.9
2017-Oct-10 19:30N 37°48' W 122°24'0 0.8
2017-Oct-10 19:00N 37°48' W 122°24'0 0.0
2017-Oct-10 18:30N 37°48' W 122°24'0 0.0
2017-Oct-10 17:59N 37°48' W 122°24'0 0.0
2017-Oct-10 17:30N 37°48' W 122°24'0 0.1
2017-Oct-10 17:01N 37°48' W 122°24'0 0.1
2017-Oct-10 16:31N 37°48' W 122°24'1 1.8
2017-Oct-10 16:00N 37°47' W 122°23'1 1.7
2017-Oct-10 15:30N 37°48' W 122°22'4 7.6
2017-Oct-10 15:00N 37°47' W 122°17'0 0.0
2017-Oct-10 01:22N 37°47' W 122°17'1 3.2
2017-Oct-10 01:00N 37°48' W 122°19'5 9.1
2017-Oct-10 00:30N 37°43' W 122°20'1 2.6
2017-Oct-10 00:01N 37°44' W 122°20'1 2.5
2017-Oct-09 23:30N 37°46' W 122°20'3 5.8
2017-Oct-09 23:00N 37°47' W 122°17'0 0.0
2017-Oct-09 22:30N 37°47' W 122°17'0 0.0
2017-Oct-09 22:00N 37°47' W 122°17'3 6.0
2017-Oct-09 21:30N 37°46' W 122°21'2 3.4
2017-Oct-09 21:00N 37°44' W 122°20'0 0.9
2017-Oct-09 20:30N 37°45' W 122°20'4 7.3
2017-Oct-09 20:00N 37°47' W 122°17'0 0.0
2017-Oct-09 16:56N 37°47' W 122°17'3 7.8
2017-Oct-09 16:30N 37°48' W 122°21'0 0.1
2017-Oct-09 16:01N 37°48' W 122°22'2 3.4
2017-Oct-09 15:30N 37°48' W 122°19'2 3.5
2017-Oct-09 15:00N 37°47' W 122°17'3 6.1
2017-Oct-09 14:30N 37°46' W 122°20'2 5.0
2017-Oct-09 14:00N 37°48' W 122°18'1 0.1
2017-Oct-09 01:04N 37°47' W 122°17'0 0.5
2017-Oct-09 01:01N 37°47' W 122°17'0 0.0
2017-Oct-09 00:34N 37°47' W 122°17'359.4
2017-Oct-09 00:30N 37°45' W 122°20'32912.2
2017-Oct-09 00:30N 37°48' W 122°18'0 0.9
2017-Oct-09 00:01N 37°48' W 122°18'31682.7
2017-Oct-09 00:00N 37°48' W 122°21'2 3.6
2017-Oct-08 23:30N 37°48' W 122°24'0 0.9
2017-Oct-08 23:00N 37°48' W 122°24'4 7.3
2017-Oct-08 22:30N 37°48' W 122°19'114.4
2017-Oct-08 22:24N 37°47' W 122°17'3 6.8
2017-Oct-08 22:01N 37°47' W 122°21'31384.0
2017-Oct-08 22:00N 37°47' W 122°17'4 7.7
2017-Oct-08 21:30N 37°44' W 122°20'4 7.1
2017-Oct-08 21:00N 37°48' W 122°20'1 0.1
2017-Oct-08 07:28N 37°48' W 122°18'3 6.6
2017-Oct-08 07:00N 37°45' W 122°21'4 7.0
2017-Oct-08 06:30N 37°47' W 122°17'3 5.8
2017-Oct-08 06:00N 37°48' W 122°21'3 5.6
2017-Oct-08 05:30N 37°45' W 122°21'3 5.1
2017-Oct-08 05:01N 37°47' W 122°23'0 0.3
2017-Oct-08 04:31N 37°47' W 122°23'3 5.7
2017-Oct-08 04:00N 37°48' W 122°20'2 4.1
2017-Oct-08 03:30N 37°47' W 122°17'0 0.0
2017-Oct-08 03:01N 37°47' W 122°17'  

Dump ship's entire track history